Time;durP1;ratioP1;P1;durP2;ratioP2;P2;SDS_P1;SDS_P2;PMS_P1;PMS_P2;Temp;Humidity;BMP_temperature;BMP_pressure;BME280_temperature;BME280_humidity;BME280_pressure;Samples;Min_cycle;Max_cycle;Signal;HPM_P1;HPM_P2
2023/06/22 00:00:56;;;;;;;9.45;5.32;;;15.80;99.90;;;;;;5031264;28;20109;-73
2023/06/22 00:03:24;;;;;;;7.63;4.35;;;15.70;99.90;;;;;;5014282;28;20120;-74
2023/06/22 00:05:50;;;;;;;6.22;4.80;;;15.70;99.90;;;;;;5032214;28;20033;-73
2023/06/22 00:08:17;;;;;;;7.47;4.28;;;15.60;99.90;;;;;;5032140;28;20048;-74
2023/06/22 00:10:43;;;;;;;8.77;4.53;;;15.60;99.90;;;;;;5032874;28;20033;-73
2023/06/22 00:13:10;;;;;;;6.38;4.43;;;15.60;99.90;;;;;;5032904;28;20044;-74
2023/06/22 00:15:38;;;;;;;7.38;4.80;;;15.60;99.90;;;;;;5031850;28;20166;-73
2023/06/22 00:18:05;;;;;;;12.23;4.80;;;15.50;99.90;;;;;;5031956;28;20045;-73
2023/06/22 00:20:30;;;;;;;7.30;4.63;;;15.50;99.90;;;;;;5032172;28;20030;-74
2023/06/22 00:22:57;;;;;;;11.38;4.50;;;15.40;99.90;;;;;;5031917;28;20041;-72
2023/06/22 00:25:23;;;;;;;6.72;4.90;;;15.40;99.90;;;;;;5031609;28;20034;-73
2023/06/22 00:27:49;;;;;;;7.97;4.57;;;15.40;99.90;;;;;;5031742;28;20507;-73
2023/06/22 00:30:16;;;;;;;7.38;5.15;;;15.40;99.90;;;;;;5031139;28;20029;-73
2023/06/22 00:32:42;;;;;;;7.18;4.95;;;15.40;99.90;;;;;;5031456;28;20051;-72
2023/06/22 00:35:09;;;;;;;6.70;4.65;;;15.40;99.90;;;;;;5031397;28;20066;-72
2023/06/22 00:37:35;;;;;;;5.32;4.20;;;15.40;99.90;;;;;;5031429;28;20482;-71
2023/06/22 00:40:03;;;;;;;8.57;4.63;;;15.40;99.90;;;;;;5013691;28;20463;-72
2023/06/22 00:42:29;;;;;;;8.85;4.60;;;15.30;99.90;;;;;;5031505;28;20181;-72
2023/06/22 00:44:54;;;;;;;7.35;4.38;;;15.30;99.90;;;;;;5031642;28;20467;-72
2023/06/22 00:47:20;;;;;;;7.00;4.78;;;15.30;99.90;;;;;;5031686;28;20026;-73
2023/06/22 00:49:48;;;;;;;7.85;5.10;;;15.30;99.90;;;;;;5031632;28;20032;-73
2023/06/22 00:52:20;;;;;;;7.45;4.68;;;15.20;99.90;;;;;;5031513;28;20030;-72
2023/06/22 00:54:48;;;;;;;9.45;5.10;;;15.20;99.90;;;;;;5030215;28;20442;-73
2023/06/22 00:57:17;;;;;;;7.43;5.15;;;15.20;99.90;;;;;;5031334;28;20487;-72
2023/06/22 00:59:44;;;;;;;7.82;5.25;;;15.20;99.90;;;;;;5031493;28;20147;-73
2023/06/22 01:02:10;;;;;;;8.45;4.97;;;15.20;99.90;;;;;;5031227;28;20037;-73
2023/06/22 01:04:38;;;;;;;7.88;4.90;;;15.10;99.90;;;;;;5031304;28;20032;-73
2023/06/22 01:07:57;;;;;;;7.03;5.05;;;15.10;99.90;;;;;;5031174;28;20084;-72
2023/06/22 01:10:39;;;;;;;6.13;4.45;;;15.10;99.90;;;;;;4990289;28;20045;-72
2023/06/22 01:13:12;;;;;;;6.32;4.97;;;15.00;99.90;;;;;;4993072;28;20038;-72
2023/06/22 01:15:44;;;;;;;9.98;4.78;;;15.00;99.90;;;;;;4976897;28;20081;-73
2023/06/22 01:18:10;;;;;;;6.85;4.88;;;15.00;99.90;;;;;;4992964;28;20042;-71
2023/06/22 01:20:37;;;;;;;11.27;4.88;;;15.00;99.90;;;;;;4992907;28;20249;-71
2023/06/22 01:23:26;;;;;;;11.30;5.72;;;15.00;99.90;;;;;;4992957;28;20081;-73
2023/06/22 01:26:02;;;;;;;7.18;4.40;;;15.00;99.90;;;;;;4991774;28;20169;-75
2023/06/22 01:28:50;;;;;;;8.75;4.70;;;15.00;99.90;;;;;;4992033;28;20030;-72
2023/06/22 01:31:29;;;;;;;11.45;4.97;;;15.00;99.90;;;;;;4992330;28;20396;-72
2023/06/22 01:33:59;;;;;;;8.88;5.03;;;15.00;99.90;;;;;;4991940;28;20431;-72
2023/06/22 01:36:26;;;;;;;9.73;5.28;;;15.00;99.90;;;;;;4981747;28;20042;-72
2023/06/22 01:38:53;;;;;;;7.25;4.60;;;15.00;99.90;;;;;;4977686;28;20100;-72
2023/06/22 01:41:20;;;;;;;11.52;5.43;;;15.00;99.90;;;;;;4980966;28;20050;-74
2023/06/22 01:43:47;;;;;;;8.00;4.88;;;15.00;99.90;;;;;;4987734;28;20042;-72
2023/06/22 01:46:14;;;;;;;8.48;4.97;;;15.00;99.90;;;;;;5014951;28;20044;-74
2023/06/22 01:48:40;;;;;;;8.50;4.90;;;15.00;99.90;;;;;;5014984;28;20035;-74
2023/06/22 01:51:06;;;;;;;8.43;5.43;;;15.00;99.90;;;;;;5013375;28;20475;-74
2023/06/22 01:53:32;;;;;;;11.23;4.82;;;15.00;99.90;;;;;;5013427;28;20037;-72
2023/06/22 01:55:58;;;;;;;6.45;4.90;;;15.00;99.90;;;;;;5013701;28;20391;-72
2023/06/22 01:58:27;;;;;;;6.60;5.10;;;14.90;99.90;;;;;;4995778;28;20037;-72
2023/06/22 02:01:14;;;;;;;12.68;5.70;;;15.00;99.90;;;;;;5012991;28;20063;-73
2023/06/22 02:03:51;;;;;;;7.38;5.43;;;15.00;99.90;;;;;;5012784;28;20049;-75
2023/06/22 02:06:36;;;;;;;10.10;4.80;;;14.90;99.90;;;;;;5013123;28;20159;-74
2023/06/22 02:09:08;;;;;;;7.15;5.20;;;14.90;99.90;;;;;;5013105;28;20041;-72
2023/06/22 02:11:36;;;;;;;6.38;5.13;;;14.90;99.90;;;;;;4995798;28;20191;-74
2023/06/22 02:14:02;;;;;;;8.85;5.07;;;14.80;99.90;;;;;;5013094;28;20028;-72
2023/06/22 02:16:32;;;;;;;8.95;5.30;;;14.80;99.90;;;;;;5013171;28;20384;-73
2023/06/22 02:19:03;;;;;;;7.60;4.63;;;14.80;99.90;;;;;;5012948;28;20038;-74
2023/06/22 02:21:29;;;;;;;8.82;5.30;;;14.80;99.90;;;;;;5012739;28;20036;-73
2023/06/22 02:23:55;;;;;;;8.90;5.80;;;14.80;99.90;;;;;;5012499;28;20034;-73
2023/06/22 02:26:21;;;;;;;11.77;5.47;;;14.80;99.90;;;;;;5012638;28;20036;-73
2023/06/22 02:28:46;;;;;;;7.10;5.22;;;14.80;99.90;;;;;;5012861;28;20026;-73
2023/06/22 02:31:12;;;;;;;6.47;4.60;;;14.80;99.90;;;;;;5012897;28;20026;-73
2023/06/22 02:33:38;;;;;;;5.90;4.38;;;14.80;99.90;;;;;;5012496;28;20472;-73
2023/06/22 02:36:05;;;;;;;5.70;4.38;;;14.80;99.90;;;;;;5012700;28;20365;-74
2023/06/22 02:38:33;;;;;;;7.85;4.53;;;14.80;99.90;;;;;;5012557;28;20053;-74
2023/06/22 02:40:58;;;;;;;13.50;4.82;;;14.80;99.90;;;;;;5012374;28;20499;-72
2023/06/22 02:43:24;;;;;;;7.03;4.72;;;14.80;99.90;;;;;;5012525;28;20034;-73
2023/06/22 02:45:50;;;;;;;7.00;4.35;;;14.80;99.90;;;;;;5012728;28;20468;-73
2023/06/22 02:48:15;;;;;;;5.97;4.50;;;14.90;99.90;;;;;;5012675;28;20034;-72
2023/06/22 02:50:41;;;;;;;7.68;4.47;;;14.80;99.90;;;;;;5012825;28;20392;-71
2023/06/22 02:53:07;;;;;;;7.57;5.25;;;14.90;99.90;;;;;;5013330;28;20161;-72
2023/06/22 02:55:32;;;;;;;7.53;4.80;;;14.90;99.90;;;;;;5012791;28;20038;-75
2023/06/22 02:57:59;;;;;;;8.43;4.78;;;14.80;99.90;;;;;;5013197;28;20033;-74
2023/06/22 03:00:30;;;;;;;7.68;4.70;;;14.80;99.90;;;;;;5013286;28;20026;-73
2023/06/22 03:02:57;;;;;;;7.30;5.15;;;14.80;99.90;;;;;;5013127;28;20136;-73
2023/06/22 03:05:23;;;;;;;6.57;4.90;;;14.90;99.90;;;;;;5013320;28;20053;-74
2023/06/22 03:07:49;;;;;;;7.25;4.57;;;14.80;99.90;;;;;;5013508;28;20026;-73
2023/06/22 03:10:15;;;;;;;6.07;4.63;;;14.80;99.90;;;;;;5013023;28;20041;-73
2023/06/22 03:12:42;;;;;;;6.78;4.85;;;14.80;99.90;;;;;;5012991;28;20088;-74
2023/06/22 03:15:10;;;;;;;10.00;4.82;;;14.80;99.90;;;;;;5013163;28;20026;-73
2023/06/22 03:17:37;;;;;;;8.90;5.60;;;14.70;99.90;;;;;;5013211;28;20368;-72
2023/06/22 03:20:10;;;;;;;6.10;4.45;;;14.70;99.90;;;;;;5013034;28;20025;-74
2023/06/22 03:22:37;;;;;;;9.43;4.95;;;14.70;99.90;;;;;;5012873;28;20080;-74
2023/06/22 03:25:04;;;;;;;8.98;4.55;;;14.70;99.90;;;;;;5030830;28;20407;-72
2023/06/22 03:27:29;;;;;;;7.20;4.93;;;14.70;99.90;;;;;;5032731;28;20034;-72
2023/06/22 03:29:57;;;;;;;7.72;4.90;;;14.70;99.90;;;;;;5032603;28;20037;-72
2023/06/22 03:32:23;;;;;;;12.40;4.63;;;14.80;99.90;;;;;;5032334;28;20239;-72
2023/06/22 03:34:49;;;;;;;8.25;4.82;;;14.70;99.90;;;;;;5032217;28;20018;-73
2023/06/22 03:37:15;;;;;;;6.30;4.95;;;14.70;99.90;;;;;;5032536;28;20032;-74
2023/06/22 03:39:41;;;;;;;8.13;4.78;;;14.70;99.90;;;;;;5031888;28;20092;-73
2023/06/22 03:42:07;;;;;;;9.25;4.60;;;14.70;99.90;;;;;;5029974;28;20091;-73
2023/06/22 03:44:33;;;;;;;5.78;4.43;;;14.70;99.90;;;;;;5031921;28;20033;-73
2023/06/22 03:46:59;;;;;;;7.53;4.13;;;14.60;99.90;;;;;;5031411;28;20033;-73
2023/06/22 03:49:24;;;;;;;7.40;4.60;;;14.60;99.90;;;;;;5031481;28;20030;-73
2023/06/22 03:51:50;;;;;;;7.60;4.90;;;14.60;99.90;;;;;;5031409;28;20022;-73
2023/06/22 03:54:16;;;;;;;6.35;4.30;;;14.60;99.90;;;;;;5031254;28;20037;-73
2023/06/22 03:56:41;;;;;;;8.00;4.50;;;14.60;99.90;;;;;;5031534;28;20021;-74
2023/06/22 03:59:07;;;;;;;8.68;4.30;;;14.60;99.90;;;;;;5013702;28;20460;-74
2023/06/22 04:01:32;;;;;;;8.10;4.60;;;14.60;99.90;;;;;;5031038;28;20056;-73
2023/06/22 04:03:58;;;;;;;7.55;4.35;;;14.60;99.90;;;;;;5031213;28;20116;-74
2023/06/22 04:06:24;;;;;;;6.05;4.68;;;14.60;99.90;;;;;;5031212;28;20021;-74
2023/06/22 04:08:50;;;;;;;6.18;4.70;;;14.60;99.90;;;;;;5031093;28;20030;-72
2023/06/22 04:11:18;;;;;;;7.18;4.82;;;14.60;99.90;;;;;;5031363;28;20121;-74
2023/06/22 04:13:44;;;;;;;10.70;4.88;;;14.60;99.90;;;;;;5031203;28;20124;-73
2023/06/22 04:16:10;;;;;;;7.78;4.22;;;14.60;99.90;;;;;;5031000;28;20116;-73
2023/06/22 04:18:35;;;;;;;5.80;4.50;;;14.50;99.90;;;;;;5031080;28;20018;-74
2023/06/22 04:21:02;;;;;;;6.95;4.30;;;14.60;99.90;;;;;;5031113;28;20029;-73
2023/06/22 04:23:27;;;;;;;6.43;5.00;;;14.50;99.90;;;;;;5030899;28;20064;-73
2023/06/22 04:25:53;;;;;;;8.18;4.55;;;14.50;99.90;;;;;;5031095;28;20057;-73
2023/06/22 04:28:19;;;;;;;7.85;4.75;;;14.50;99.90;;;;;;5030735;28;20069;-73
2023/06/22 04:30:47;;;;;;;6.50;4.40;;;14.40;99.90;;;;;;5030877;28;20029;-74
2023/06/22 04:33:16;;;;;;;7.47;4.35;;;14.40;99.90;;;;;;5030948;28;20449;-72
2023/06/22 04:35:45;;;;;;;6.88;4.65;;;14.40;99.90;;;;;;5030970;28;20057;-74
2023/06/22 04:38:13;;;;;;;5.72;4.38;;;14.40;99.90;;;;;;4972488;28;1163346;-73
2023/06/22 04:40:39;;;;;;;7.45;4.45;;;14.40;99.90;;;;;;5031773;28;20510;-72
2023/06/22 04:43:06;;;;;;;9.27;5.03;;;14.40;99.90;;;;;;5031548;28;20029;-74
2023/06/22 04:45:37;;;;;;;8.85;4.55;;;14.30;99.90;;;;;;5033799;28;20083;-73
2023/06/22 04:48:04;;;;;;;7.47;4.22;;;14.30;99.90;;;;;;5036466;28;20022;-73
2023/06/22 04:50:29;;;;;;;5.78;4.45;;;14.30;99.90;;;;;;5036212;28;20040;-72
2023/06/22 04:52:55;;;;;;;7.25;4.72;;;14.30;99.90;;;;;;5037206;28;20029;-75
2023/06/22 04:55:20;;;;;;;6.13;4.50;;;14.40;99.90;;;;;;5037961;28;20033;-72
2023/06/22 04:57:48;;;;;;;6.40;4.18;;;14.30;99.90;;;;;;5035741;28;20120;-74
2023/06/22 05:00:23;;;;;;;6.43;4.38;;;14.40;99.90;;;;;;5035328;28;20108;-73
2023/06/22 05:02:49;;;;;;;9.30;4.85;;;14.40;99.90;;;;;;5035238;28;20037;-74
2023/06/22 05:05:15;;;;;;;6.68;4.72;;;14.30;99.90;;;;;;5035211;28;20037;-74
2023/06/22 05:07:47;;;;;;;6.82;5.07;;;14.30;99.90;;;;;;5035350;28;20026;-75
2023/06/22 05:10:13;;;;;;;7.53;4.55;;;14.30;99.90;;;;;;5033926;28;20071;-73
2023/06/22 05:12:40;;;;;;;8.20;4.10;;;14.30;99.90;;;;;;5034977;28;20030;-73
2023/06/22 05:15:07;;;;;;;7.15;4.60;;;14.30;99.90;;;;;;5035210;28;20057;-73
2023/06/22 05:17:34;;;;;;;7.50;4.53;;;14.30;99.90;;;;;;5035913;28;20075;-73
2023/06/22 05:19:59;;;;;;;9.88;4.80;;;14.30;99.90;;;;;;5035354;28;20026;-73
2023/06/22 05:22:25;;;;;;;7.68;5.03;;;14.30;99.90;;;;;;5017314;28;20042;-74
2023/06/22 05:24:51;;;;;;;9.23;5.63;;;14.40;99.90;;;;;;5035118;28;20022;-74
2023/06/22 05:27:16;;;;;;;9.30;4.95;;;14.30;99.90;;;;;;5034790;28;20032;-73
2023/06/22 05:29:42;;;;;;;11.48;5.22;;;14.30;99.90;;;;;;5017006;28;20034;-75
2023/06/22 05:32:08;;;;;;;7.97;5.53;;;14.30;99.90;;;;;;5034690;28;20036;-74
2023/06/22 05:34:34;;;;;;;8.30;4.95;;;14.30;99.90;;;;;;5034801;28;20029;-74
2023/06/22 05:36:59;;;;;;;6.47;4.80;;;14.30;99.90;;;;;;5034845;28;20095;-73
2023/06/22 05:39:25;;;;;;;10.20;5.53;;;14.40;99.90;;;;;;5021275;28;20128;-73
2023/06/22 05:41:52;;;;;;;10.82;5.88;;;14.40;99.90;;;;;;5014617;28;20018;-74
2023/06/22 05:44:18;;;;;;;8.07;5.55;;;14.40;99.90;;;;;;5014827;28;20030;-73
2023/06/22 05:46:45;;;;;;;8.52;5.75;;;14.40;99.90;;;;;;5014642;28;20392;-72
2023/06/22 05:49:15;;;;;;;12.25;5.43;;;14.40;99.90;;;;;;5014811;28;20032;-74
2023/06/22 05:51:41;;;;;;;10.45;5.00;;;14.50;99.90;;;;;;5014739;28;20371;-73
2023/06/22 05:54:13;;;;;;;8.63;5.03;;;14.60;99.90;;;;;;5014670;28;20454;-73
2023/06/22 05:56:38;;;;;;;12.40;5.10;;;14.60;99.90;;;;;;5014435;28;20041;-74
2023/06/22 05:59:04;;;;;;;7.45;4.85;;;14.70;99.90;;;;;;5014447;28;20114;-73
2023/06/22 06:01:34;;;;;;;11.07;5.20;;;14.70;99.90;;;;;;5014369;28;20570;-73
2023/06/22 06:04:00;;;;;;;6.85;4.45;;;14.80;99.90;;;;;;5014530;28;20137;-73
2023/06/22 06:06:28;;;;;;;10.02;5.05;;;14.90;99.90;;;;;;5014450;28;20113;-72
2023/06/22 06:08:54;;;;;;;6.88;4.68;;;15.00;99.90;;;;;;5013070;28;20132;-73
2023/06/22 06:11:19;;;;;;;10.02;5.10;;;15.00;99.90;;;;;;5014330;28;20118;-72
2023/06/22 06:13:45;;;;;;;7.07;5.07;;;15.10;99.90;;;;;;5014979;28;20030;-72
2023/06/22 06:16:11;;;;;;;10.18;4.78;;;15.10;99.90;;;;;;5013481;28;20507;-72
2023/06/22 06:18:37;;;;;;;7.35;5.00;;;15.20;99.90;;;;;;5014576;28;20030;-75
2023/06/22 06:21:03;;;;;;;12.25;4.97;;;15.30;99.90;;;;;;5014267;28;20095;-73
2023/06/22 06:23:28;;;;;;;6.65;4.70;;;15.40;99.90;;;;;;5014241;28;20551;-72
2023/06/22 06:25:54;;;;;;;8.07;4.38;;;15.40;99.90;;;;;;5013905;28;20022;-74
2023/06/22 06:28:20;;;;;;;11.13;5.07;;;15.50;99.90;;;;;;5014180;28;20026;-71
2023/06/22 06:30:47;;;;;;;9.00;4.60;;;15.50;99.90;;;;;;5014174;28;20029;-75
2023/06/22 06:33:13;;;;;;;7.85;4.82;;;15.60;99.90;;;;;;5013975;28;20092;-73
2023/06/22 06:35:39;;;;;;;6.80;4.88;;;15.70;99.90;;;;;;5014077;28;20033;-74
2023/06/22 06:38:04;;;;;;;10.27;4.95;;;15.80;99.90;;;;;;5012497;28;20034;-74
2023/06/22 06:40:30;;;;;;;6.32;4.32;;;15.90;99.90;;;;;;5013684;28;20072;-73
2023/06/22 06:42:56;;;;;;;5.95;4.65;;;15.90;99.90;;;;;;5013542;28;20468;-73
2023/06/22 06:45:23;;;;;;;6.38;4.53;;;16.00;99.90;;;;;;5010872;28;20042;-73
2023/06/22 06:47:50;;;;;;;9.02;4.63;;;16.00;99.90;;;;;;4992236;28;20022;-75
2023/06/22 06:50:16;;;;;;;7.85;4.22;;;16.10;99.90;;;;;;4993624;28;20477;-73
2023/06/22 06:52:42;;;;;;;7.68;4.80;;;16.20;99.90;;;;;;4992874;28;20031;-73
2023/06/22 06:55:13;;;;;;;7.82;4.13;;;16.30;99.90;;;;;;4993645;28;20499;-74
2023/06/22 06:57:39;;;;;;;7.55;4.75;;;16.30;99.90;;;;;;4993578;28;20109;-73
2023/06/22 07:00:11;;;;;;;7.53;4.65;;;16.40;99.90;;;;;;4993738;28;20038;-73
2023/06/22 07:02:39;;;;;;;8.27;4.18;;;16.50;99.90;;;;;;4975924;28;20065;-73
2023/06/22 07:05:05;;;;;;;9.10;4.57;;;16.60;99.90;;;;;;4990933;28;20473;-75
2023/06/22 07:07:32;;;;;;;9.20;4.35;;;16.60;99.90;;;;;;4993585;28;20026;-73
2023/06/22 07:09:57;;;;;;;8.38;4.75;;;16.70;99.90;;;;;;4992916;28;20053;-75
2023/06/22 07:12:23;;;;;;;6.00;4.13;;;16.80;99.90;;;;;;4991582;28;20441;-73
2023/06/22 07:14:50;;;;;;;8.68;3.95;;;16.90;99.90;;;;;;4993083;28;20031;-74
2023/06/22 07:17:15;;;;;;;6.53;4.30;;;17.00;99.90;;;;;;4993367;28;20018;-73
2023/06/22 07:19:42;;;;;;;7.32;4.53;;;17.10;99.90;;;;;;4993264;28;20029;-73
2023/06/22 07:22:07;;;;;;;7.38;4.93;;;17.20;99.90;;;;;;4990345;28;20021;-74
2023/06/22 07:24:33;;;;;;;6.20;4.20;;;17.30;99.90;;;;;;4992984;28;20026;-76
2023/06/22 07:26:59;;;;;;;8.48;4.22;;;17.40;99.90;;;;;;4975569;28;20026;-73
2023/06/22 07:29:26;;;;;;;11.07;4.05;;;17.40;99.90;;;;;;4992184;28;20384;-73
2023/06/22 07:31:52;;;;;;;6.95;4.10;;;17.50;99.90;;;;;;4993195;28;20020;-74
2023/06/22 07:34:18;;;;;;;7.05;4.47;;;17.60;99.90;;;;;;4992772;28;20105;-72
2023/06/22 07:36:44;;;;;;;6.82;4.30;;;17.70;99.90;;;;;;4993610;28;20037;-75
2023/06/22 07:39:10;;;;;;;6.78;4.07;;;17.70;99.90;;;;;;4993246;28;20050;-74
2023/06/22 07:41:36;;;;;;;10.98;4.45;;;17.80;99.90;;;;;;4989021;28;20528;-73
2023/06/22 07:44:03;;;;;;;11.05;4.50;;;17.90;99.90;;;;;;5007542;28;20042;-71
2023/06/22 07:46:30;;;;;;;5.47;3.60;;;17.90;99.90;;;;;;4992559;28;20030;-71
2023/06/22 07:48:56;;;;;;;6.78;4.07;;;18.00;99.90;;;;;;4992008;28;20022;-74
2023/06/22 07:51:22;;;;;;;8.50;4.50;;;18.00;99.90;;;;;;4992684;28;20030;-72
2023/06/22 07:53:48;;;;;;;6.75;3.70;;;18.10;99.90;;;;;;4992583;28;20034;-72
2023/06/22 07:56:18;;;;;;;4.70;3.83;;;18.20;99.90;;;;;;4992678;28;20527;-73
2023/06/22 07:58:45;;;;;;;8.65;4.32;;;18.30;99.90;;;;;;4992583;28;20037;-74
2023/06/22 08:01:11;;;;;;;7.72;3.60;;;18.50;99.90;;;;;;4992398;28;20034;-75
2023/06/22 08:03:37;;;;;;;6.82;3.50;;;18.70;99.90;;;;;;4987429;28;20039;-72
2023/06/22 08:06:03;;;;;;;5.35;3.53;;;18.90;99.90;;;;;;4994745;28;20056;-71
2023/06/22 08:08:29;;;;;;;7.57;4.03;;;19.10;99.90;;;;;;4991356;28;20052;-72
2023/06/22 08:10:54;;;;;;;7.07;3.42;;;19.30;99.90;;;;;;4992300;28;20026;-75
2023/06/22 08:13:20;;;;;;;6.60;3.28;;;19.40;99.90;;;;;;5007894;28;20061;-74
2023/06/22 08:15:46;;;;;;;11.65;3.65;;;19.50;99.90;;;;;;4992603;28;20030;-73
2023/06/22 08:18:12;;;;;;;10.73;3.55;;;19.60;99.90;;;;;;4992075;28;20019;-75
2023/06/22 08:20:37;;;;;;;7.47;3.72;;;19.70;99.90;;;;;;4991458;28;20385;-72
2023/06/22 08:23:06;;;;;;;5.75;3.42;;;19.90;99.90;;;;;;4992925;28;20050;-74
2023/06/22 08:25:35;;;;;;;10.70;3.67;;;20.10;99.90;;;;;;4996215;28;20026;-75
2023/06/22 08:28:02;;;;;;;5.53;3.67;;;20.30;99.90;;;;;;4995676;28;20031;-73
2023/06/22 08:30:27;;;;;;;8.57;3.45;;;20.40;99.90;;;;;;4996188;28;20030;-74
2023/06/22 08:32:56;;;;;;;11.00;3.38;;;20.60;99.90;;;;;;4996261;28;20038;-73
2023/06/22 08:35:23;;;;;;;8.20;3.33;;;20.70;99.90;;;;;;4996679;28;20032;-74
2023/06/22 08:37:54;;;;;;;9.07;3.40;;;20.70;99.90;;;;;;4996422;28;20037;-74
2023/06/22 08:40:20;;;;;;;4.60;2.72;;;20.80;99.90;;;;;;5015531;28;20030;-72
2023/06/22 08:42:46;;;;;;;5.38;3.03;;;20.90;99.90;;;;;;5015098;28;20052;-75
2023/06/22 08:45:13;;;;;;;4.95;3.20;;;20.90;99.90;;;;;;5015574;28;20037;-73
2023/06/22 08:47:41;;;;;;;6.80;3.67;;;21.00;99.90;;;;;;5014997;28;20033;-74
2023/06/22 08:50:08;;;;;;;4.57;3.15;;;21.00;99.90;;;;;;5015378;28;20109;-74
2023/06/22 08:52:34;;;;;;;6.00;3.28;;;21.10;99.90;;;;;;5015786;28;20049;-76
2023/06/22 08:55:00;;;;;;;6.65;3.55;;;21.10;99.90;;;;;;5015487;28;20452;-72
2023/06/22 08:57:26;;;;;;;6.00;3.72;;;21.10;99.90;;;;;;5015582;28;20052;-72
2023/06/22 08:59:52;;;;;;;7.15;3.08;;;21.20;99.90;;;;;;5015362;28;20464;-71
2023/06/22 09:02:19;;;;;;;5.10;3.10;;;21.20;99.90;;;;;;5015007;28;20037;-71
2023/06/22 09:04:46;;;;;;;4.97;3.33;;;21.30;99.90;;;;;;5015037;28;20040;-73
2023/06/22 09:07:12;;;;;;;6.07;3.20;;;21.30;99.90;;;;;;5014147;28;20061;-72
2023/06/22 09:09:37;;;;;;;9.05;3.50;;;21.50;99.90;;;;;;5015799;28;20053;-74
2023/06/22 09:12:04;;;;;;;7.90;3.45;;;21.50;99.90;;;;;;5014284;28;20140;-73
2023/06/22 09:14:29;;;;;;;5.15;3.53;;;21.60;99.90;;;;;;5015576;28;20036;-74
2023/06/22 09:16:55;;;;;;;9.25;3.17;;;21.80;99.90;;;;;;5015351;28;20029;-75
2023/06/22 09:19:20;;;;;;;6.60;3.35;;;22.00;99.90;;;;;;5014205;28;20105;-73
2023/06/22 09:21:46;;;;;;;9.30;3.50;;;22.00;99.90;;;;;;5015241;28;20037;-73
2023/06/22 09:24:12;;;;;;;6.28;3.40;;;22.00;99.10;;;;;;5015768;28;20044;-74
2023/06/22 09:26:37;;;;;;;8.02;3.25;;;22.10;98.30;;;;;;5015155;28;20022;-74
2023/06/22 09:29:05;;;;;;;8.23;3.10;;;22.20;97.20;;;;;;5015079;28;20068;-71
2023/06/22 09:31:31;;;;;;;7.65;3.38;;;22.40;96.50;;;;;;5014190;28;20072;-73
2023/06/22 09:33:57;;;;;;;7.93;3.17;;;22.60;95.80;;;;;;5015850;28;20451;-74
2023/06/22 09:36:23;;;;;;;5.68;3.15;;;22.80;95.50;;;;;;5017142;28;20037;-74
2023/06/22 09:38:55;;;;;;;4.93;3.45;;;23.10;94.80;;;;;;5023505;28;20057;-72
2023/06/22 09:41:21;;;;;;;4.88;2.88;;;23.20;93.70;;;;;;5035132;28;20026;-74
2023/06/22 09:43:50;;;;;;;6.10;3.30;;;23.40;92.90;;;;;;5034821;28;20067;-72
2023/06/22 09:46:16;;;;;;;5.38;3.35;;;23.50;92.10;;;;;;5034607;28;20025;-73
2023/06/22 09:48:42;;;;;;;6.60;3.53;;;23.70;91.40;;;;;;5034067;28;20140;-74
2023/06/22 09:51:07;;;;;;;7.50;3.90;;;23.90;91.20;;;;;;5032604;28;20113;-71
2023/06/22 09:53:34;;;;;;;6.75;3.85;;;24.10;90.30;;;;;;5016089;28;20041;-72
2023/06/22 09:56:01;;;;;;;5.78;3.25;;;24.10;89.60;;;;;;5014725;28;20049;-72
2023/06/22 09:58:27;;;;;;;7.95;3.50;;;24.30;88.40;;;;;;4996612;28;20384;-74
2023/06/22 10:00:54;;;;;;;7.32;3.42;;;24.40;88.10;;;;;;5013726;28;20052;-72
2023/06/22 10:03:20;;;;;;;6.13;4.00;;;24.60;86.80;;;;;;4996365;28;20184;-72
2023/06/22 10:05:45;;;;;;;6.72;4.28;;;24.80;85.50;;;;;;4996635;28;20120;-75
2023/06/22 10:08:11;;;;;;;8.07;4.80;;;24.80;84.40;;;;;;5014214;28;20037;-72
2023/06/22 10:10:37;;;;;;;9.27;6.00;;;25.00;84.00;;;;;;5014256;28;20112;-71
2023/06/22 10:13:11;;;;;;;7.82;5.07;;;25.00;82.10;;;;;;5013637;28;20038;-72
2023/06/22 10:15:37;;;;;;;7.22;4.78;;;25.00;81.80;;;;;;5014112;28;20056;-74
2023/06/22 10:18:03;;;;;;;8.68;5.40;;;25.00;81.50;;;;;;5013867;28;20025;-72
2023/06/22 10:20:29;;;;;;;7.35;5.32;;;25.00;81.20;;;;;;5014493;28;20052;-72
2023/06/22 10:22:55;;;;;;;9.95;5.35;;;24.80;81.00;;;;;;5014142;28;20089;-73
2023/06/22 10:25:21;;;;;;;8.82;5.35;;;24.80;81.20;;;;;;5014056;28;20045;-71
2023/06/22 10:27:48;;;;;;;8.40;5.35;;;24.80;81.40;;;;;;5013322;28;20049;-75
2023/06/22 10:30:15;;;;;;;6.80;4.32;;;24.80;81.40;;;;;;5020993;28;20041;-71
2023/06/22 10:32:45;;;;;;;8.18;4.00;;;24.80;81.30;;;;;;5013826;28;20029;-70
2023/06/22 10:35:13;;;;;;;10.88;3.70;;;24.80;81.10;;;;;;5013681;28;20026;-73
2023/06/22 10:37:39;;;;;;;6.25;3.55;;;24.60;81.00;;;;;;5013496;28;20022;-72
2023/06/22 10:40:05;;;;;;;6.78;4.05;;;24.40;81.40;;;;;;5013548;28;20513;-71
2023/06/22 10:42:31;;;;;;;6.57;3.95;;;24.20;81.90;;;;;;5012882;28;20124;-73
2023/06/22 10:44:57;;;;;;;9.45;4.20;;;24.00;82.90;;;;;;5012979;28;20113;-73
2023/06/22 10:47:22;;;;;;;5.95;3.63;;;23.70;84.40;;;;;;5013293;28;20460;-72
2023/06/22 10:49:48;;;;;;;6.13;3.97;;;23.50;85.90;;;;;;5013465;28;20034;-72
2023/06/22 10:52:14;;;;;;;5.63;4.10;;;23.40;86.90;;;;;;5013615;28;20030;-71
2023/06/22 10:54:39;;;;;;;6.35;4.35;;;23.30;87.70;;;;;;5012898;28;20072;-70
2023/06/22 10:57:05;;;;;;;7.38;4.60;;;23.20;88.50;;;;;;5012822;28;20365;-74
2023/06/22 10:59:31;;;;;;;6.53;4.05;;;23.20;88.90;;;;;;5013362;28;20033;-71
2023/06/22 11:01:58;;;;;;;6.13;4.03;;;23.20;89.70;;;;;;5013120;28;20034;-72
2023/06/22 11:04:23;;;;;;;6.50;3.67;;;23.20;90.10;;;;;;5013381;28;20077;-73
2023/06/22 11:06:49;;;;;;;8.73;4.65;;;23.30;90.40;;;;;;5013288;28;20054;-72
2023/06/22 11:09:20;;;;;;;8.77;3.90;;;23.30;90.60;;;;;;4995328;28;20026;-74
2023/06/22 11:11:53;;;;;;;6.20;3.97;;;23.30;91.00;;;;;;5013383;28;20034;-73
2023/06/22 11:14:19;;;;;;;6.95;2.80;;;23.30;91.10;;;;;;5013425;28;20530;-72
2023/06/22 11:16:46;;;;;;;3.65;2.30;;;23.20;91.10;;;;;;5012529;28;21686;-73
2023/06/22 11:19:12;;;;;;;3.53;2.47;;;23.10;91.10;;;;;;5012353;28;20069;-74
2023/06/22 11:21:38;;;;;;;3.40;2.60;;;23.10;91.00;;;;;;5012989;28;20065;-72
2023/06/22 11:24:04;;;;;;;3.10;2.80;;;23.00;90.90;;;;;;5012943;28;20041;-74
2023/06/22 11:26:29;;;;;;;4.30;2.83;;;22.90;90.80;;;;;;5013286;28;20041;-72
2023/06/22 11:28:55;;;;;;;4.63;2.97;;;22.90;91.00;;;;;;5012471;28;20084;-73
2023/06/22 11:31:21;;;;;;;4.55;2.65;;;22.90;91.10;;;;;;5012862;28;20026;-71
2023/06/22 11:33:47;;;;;;;3.70;2.85;;;22.80;91.10;;;;;;5011109;28;20029;-73
2023/06/22 11:36:14;;;;;;;4.40;3.00;;;23.00;91.10;;;;;;5012647;28;20069;-72
2023/06/22 11:38:40;;;;;;;4.10;3.40;;;23.10;91.10;;;;;;5008340;28;20102;-72
2023/06/22 11:41:09;;;;;;;5.57;3.50;;;23.10;91.20;;;;;;5001811;28;20492;-72
2023/06/22 11:43:35;;;;;;;6.13;3.50;;;23.10;91.10;;;;;;5010749;28;20040;-74
2023/06/22 11:46:02;;;;;;;4.50;3.60;;;23.10;91.10;;;;;;5002786;28;20030;-74
2023/06/22 11:48:28;;;;;;;4.72;3.53;;;23.30;91.30;;;;;;4991883;28;20041;-72
2023/06/22 11:50:55;;;;;;;5.80;3.05;;;23.60;91.50;;;;;;4975222;28;20046;-73
2023/06/22 11:53:26;;;;;;;2.95;2.58;;;24.00;91.10;;;;;;4992732;28;20054;-73
2023/06/22 11:55:52;;;;;;;3.25;2.70;;;24.40;90.10;;;;;;4992792;28;20038;-74
2023/06/22 11:58:18;;;;;;;3.08;2.50;;;24.80;88.40;;;;;;4992125;28;20022;-73
2023/06/22 12:00:44;;;;;;;5.03;2.50;;;25.10;86.30;;;;;;4992204;28;20033;-72
2023/06/22 12:03:11;;;;;;;4.35;2.50;;;25.50;84.80;;;;;;4991966;28;20070;-73
2023/06/22 12:05:38;;;;;;;3.15;2.70;;;25.70;82.90;;;;;;4990982;28;20495;-73
2023/06/22 12:08:03;;;;;;;3.33;2.47;;;25.80;81.80;;;;;;4992147;28;20492;-72
2023/06/22 12:10:29;;;;;;;4.07;2.88;;;25.90;81.70;;;;;;4994563;28;20042;-71
2023/06/22 12:12:55;;;;;;;3.28;2.75;;;26.00;81.50;;;;;;4992490;28;20496;-72
2023/06/22 12:15:21;;;;;;;7.88;3.05;;;26.10;81.20;;;;;;4991762;28;20030;-73
2023/06/22 12:17:48;;;;;;;6.38;3.05;;;26.40;80.40;;;;;;4992474;28;20037;-73
2023/06/22 12:20:13;;;;;;;5.10;2.90;;;26.70;78.30;;;;;;4991916;28;20031;-73
2023/06/22 12:22:40;;;;;;;4.50;2.92;;;26.80;76.70;;;;;;4991864;28;20392;-75
2023/06/22 12:25:07;;;;;;;3.47;3.00;;;26.90;76.00;;;;;;4991416;28;20463;-73
2023/06/22 12:27:33;;;;;;;4.47;3.05;;;26.90;75.00;;;;;;4992319;28;20054;-71
2023/06/22 12:29:58;;;;;;;5.45;3.08;;;26.70;74.40;;;;;;4992083;28;20054;-73
2023/06/22 12:32:25;;;;;;;5.18;3.83;;;26.50;74.40;;;;;;4992497;28;20034;-73
2023/06/22 12:34:51;;;;;;;9.05;3.80;;;26.30;74.90;;;;;;4973063;28;20238;-73
2023/06/22 12:37:16;;;;;;;6.20;3.75;;;26.00;75.60;;;;;;4977672;28;20444;-73
2023/06/22 12:39:42;;;;;;;6.15;3.92;;;25.90;76.50;;;;;;4991085;28;20054;-72
2023/06/22 12:42:08;;;;;;;5.97;4.07;;;25.90;77.00;;;;;;4991925;28;20304;-71
2023/06/22 12:44:38;;;;;;;5.75;3.78;;;25.80;77.20;;;;;;4992250;28;20480;-74